Strona główna
METAR-TAF:

METAR-TAF

Lotnisko :

Port lotniczy Formosa

Formosa, Argentyna

Szerokość geograficzna: 26-12S, Długość geograficzna: 058-14W, wysokość: 59 m

Aktualna obserwacja pogody

Raport powstał 1 godzina i 15 minut temu, godzina 14:00 UTC
Wiatr 7 kt od południowy wschód
Temperatura 17°C
Wilgotność 68%
Ciśnienie 1024 hPa
Widzialność 10 km lub więcej
Brak chmur poniżej 1500 m i brak chmur cumulonimbus

METAR: SARF 241400Z 14007KT CAVOK 17/11 Q1024

czas: 12:15 (15:15 UTC)

Prognoza

Raport powstał 4 godziny i 15 minut temu, godzina 11:00 UTC
Prognoza ważna od 24 godzina 12 UTC do 25 godzina 12 UTC
Wiatr 5 kt od południowo-południowy zachód
Widzialność 10 km lub więcej
Brak chmur poniżej 1500 m i brak chmur cumulonimbus
Prawdopodobieństwo 30%
od 25 godzina 08 UTC do 25 godzina 11 UTC
Widzialność: 4000 m
zamglenie

TAF: SARF 241100Z 2412/2512 20005KT CAVOK TX20/2418Z TN08/2510Z PROB30 2508/2511 4000 BR NSC

Obserwacja i prognoza pogody dla ponad 4000 lotnisk (raport METAR i TAF).

Dostępne stacje oznaczono żółtymi i czerwonymi punktami na mapie.

Najedź kursorem aby zobaczyć nazwę stacji.

Kliknij aby zobaczyć obserwacje i prognozy pogody.

Aby zmienić mapę: kliknij na zielony przycisk z czarnym krzyżykiem, aby powiększyć; na zielony przycisk z myślnikiem, aby pomniejszyć; na zielone strzałki, aby przejść do map sąsiednich.


METAR-TAF: